South Wilmington, Illinois
Current Conditions -  °F | °C
As of 2:35 PM on Wednesday 26 Nov 2014 (Local Time) from KC09 Reporting Station
Overcast Overcast  
Wind Chill: 21°   Ceiling: 1700
Heat Index: 28°   Visibility: 10mi
Dew Point: 24°   Wind: 7mph
Humidity: 82%   Direction: 120°ESE
Pressure: 30.1"   Gusts: NA
Location:  41.17°N, 88.28°W
Report Text: KC09 262035Z AUTO 12006KT 10SM OVC017 M02/M05 A3010 RMK AO2 T10201047
Loading
Personal Weather Stations






























Interactive Weather Map New forecast layout! Learn more

10-Day Weather Forecast

Advertisements
Track Severe Weather on mobile